Tiempo atmosférico en la estación meteorológica de Bicorp, València/Valencia (299 m.)



Fecha
DESCASC
Temp. máxima en grados centígrados (hora)
DESCASC
Temp. mínima en grados centígrados (hora)
DESCASC
Temp. media en grados centígrados
DESCASC
Racha de viento máxima en m/sg (hora)
DESCASC
Velocidad máxima media en intervalos de 10 minutos(hora)
DESCASC
Precipitaciones diarias en mm
DESCASC
Precipitaciones de 00:00 a 06:00 en mm
DESCASC
Precipitaciones de 06:00 a 12:00 en mm
DESCASC
Precipitaciones de 12:00 a 18:00 en mm
DESCASC
Precipitaciones de 18:00 a 24:00 en mm
DESCASC
29-03-2020 21.7 (17:40) 3.9 (05:30) 12.8 6.39 (10:40) 3.61 (18:10) 0 0 0 0 0
28-03-2020 15.6 (15:30) 3.3 (05:40) 9.5 5.83 (13:20) 3.33 (15:00) 0 0 0 0 0
27-03-2020 7.9 (14:10) 5.9 (04:20) 6.9 5.83 (00:30) 3.33 (00:30) 13 0 6.4 6 0.6
26-03-2020 15.2 (13:00) 4 (00:00) 9.6 9.44 (16:50) 5.83 (16:50) 0.2 0.2 0 0 0
25-03-2020 9.5 (12:30) 6.7 (00:00) 8.1 5.28 (01:10) 2.78 (01:10) 4.8 2 0.8 1.8 0.2
24-03-2020 12 (00:00) 9.3 (00:00) 10.7 12.78 (08:50) 6.94 (12:10) 52 22.2 26.2 3.6 0
23-03-2020 14.2 (13:00) 9.7 (00:00) 11.9 10.28 (21:30) 5.83 (20:20) 16.2 2.6 1 7.4 5.2
22-03-2020 12.3 (13:00) 8.5 (00:50) 10.4 5.83 (20:50) 2.5 (15:10) 40.4 1.6 1 5.4 32.4
21-03-2020 10.9 (15:20) 8.7 (00:00) 9.8 5 (19:50) 2.78 (15:40) 13.4 0.6 0.6 1 11.2
20-03-2020 12.1 (15:10) 10.4 (00:00) 11.3 5.28 (10:10) 2.78 (10:10) 0.8 0 0 0.4 0.4
19-03-2020 12.7 (12:10) 8.7 (00:00) 10.7 4.44 (11:40) 2.78 (10:20) 1 0 0 1 0
18-03-2020 16.2 (14:50) 7.9 (00:00) 12.1 8.89 (12:40) 6.11 (12:50) 0 0 0 0 0
17-03-2020 12.8 (16:00) 7.4 (00:00) 10.1 12.78 (19:10) 6.39 (18:10) 14.2 1.8 4.8 7.2 0.4
16-03-2020 12.9 (00:00) 6.3 (00:00) 9.6 9.44 (10:10) 4.17 (10:10) 6.2 2.6 0.8 2.2 0.6
15-03-2020 19.8 (14:00) 8.9 (00:00) 14.3 6.94 (14:10) 3.33 (14:10) 0 0 0 0 0
14-03-2020 21.5 (14:40) 7.4 (00:00) 14.5 6.39 (15:20) 3.33 (16:20) 0 0 0 0 0
13-03-2020 18.5 (13:50) 8.1 (05:30) 13.3 6.11 (14:10) 3.33 (14:10) 0 0 0 0 0
12-03-2020 26.1 (14:30) 8.9 (00:00) 17.5 4.44 (15:20) 2.78 (16:20) 0 0 0 0 0
11-03-2020 28 (14:20) 10.8 (00:00) 19.4 6.39 (15:10) 4.17 (15:10) 0 0 0 0 0
10-03-2020 24.8 (15:40) 9.3 (00:00) 17 5.83 (16:10) 3.06 (14:20) 0 0 0 0 0
09-03-2020 22.4 (15:10) 8.3 (00:00) 15.3 9.44 (13:10) 4.44 (13:40) 0 0 0 0 0
08-03-2020 22.8 (16:20) 5 (00:00) 13.9 11.67 (14:50) 6.11 (15:10) 0 0 0 0 0
07-03-2020 18.7 (15:40) 7.5 (00:00) 13.1 9.72 (10:50) 4.17 (16:50) 0 0 0 0 0
06-03-2020 17.1 (14:00) 9.4 (00:00) 13.3 15.28 (12:20) 6.11 (08:50) 0 0 0 0 0
05-03-2020 20.6 (13:20) 13.2 (00:00) 16.9 22.5 (13:30) 13.33 (13:30) 0 0 0 0 0
04-03-2020 20.4 (16:00) 14.7 (23:50) 17.5 17.22 (06:20) 6.67 (09:10) 0 0 0 0 0
03-03-2020 18.7 (16:00) 6.7 (00:00) 12.7 25.28 (14:20) 11.39 (14:00) 0 0 0 0 0
02-03-2020 -- (--) -- (--) -- -- (--) -- (--) -- -- 0 2.2 0
01-03-2020 20.7 (16:00) 12.6 (00:00) 16.7 14.44 (00:50) 7.22 (01:00) 0 0 0 0 0
29-02-2020 22.9 (14:40) 5.7 (00:00) 14.3 13.33 (11:10) 6.11 (17:00) 0 0 0 0 0

Gráficas

Temp. máximas Temp. mínimas Temp. medias Precipitaciones Rachas de viento máximas Velocidades máximas media en intervalos de 10 minutos

Datos horarios

Fecha y hora oficial Temperatura (ºC) Velocidad del viento (km/h) Dirección del viento Racha (km/h) Dirección de racha Precipitación (mm) Presión (hPa) Tendencia (hPa) Humedad (%)
2020-03-29 23:00:00 14.8 6 Sudoeste 14 Sudoeste 0 -- -- 51
2020-03-29 22:00:00 14 7 Sudoeste 10 Sudoeste 0 -- -- 60
2020-03-29 21:00:00 15.4 5 Sudoeste 16 Oeste 0 -- -- 55
2020-03-29 20:00:00 18.3 4 Oeste 21 Sudoeste 0 -- -- 42
2020-03-29 19:00:00 20.8 11 Sudoeste 23 Sudoeste 0 -- -- 35
2020-03-29 18:00:00 21.7 8 Sudoeste 18 Noroeste 0 -- -- 34
2020-03-29 17:00:00 21.3 6 Oeste 21 Noroeste 0 -- -- 38
2020-03-29 16:00:00 21.1 8 Oeste 21 Sudoeste 0 -- -- 36
2020-03-29 15:00:00 20.6 5 Nordeste 21 Sudoeste 0 -- -- 33
2020-03-29 14:00:00 20 10 Sur 23 Oeste 0 -- -- 34
2020-03-29 13:00:00 19.5 10 Sudoeste 23 Sudoeste 0 -- -- 42
2020-03-29 12:00:00 18.3 5 Sudoeste 18 Sudoeste 0 -- -- 46
2020-03-29 11:00:00 15.6 13 Sur 23 Sudoeste 0 -- -- 53
2020-03-29 10:00:00 11.6 4 Nordeste 7 Este 0 -- -- 74
2020-03-29 09:00:00 7.4 2 Nordeste 5 Norte 0 -- -- 91
2020-03-29 08:00:00 4.6 0 Calma 6 Sudeste 0 -- -- 94
2020-03-29 07:00:00 4 0 Calma 5 Sudoeste 0 -- -- 94
2020-03-29 06:00:00 4 0 Calma 3 Sudoeste 0 -- -- 94
2020-03-29 05:00:00 4.1 0 Calma 2 Sudoeste 0 -- -- 93
2020-03-29 03:00:00 6.1 4 Oeste 10 Oeste 0 -- -- 87
2020-03-29 01:00:00 5.2 3 Sudoeste 6 Sudoeste 0 -- -- 91
2020-03-29 00:00:00 5.7 0 Calma 6 Oeste 0 -- -- 88
2020-03-28 23:00:00 6.9 4 Oeste 9 Sudoeste 0 -- -- 84
2020-03-28 22:00:00 7.6 5 Oeste 10 Oeste 0 -- -- 80
2020-03-28 21:00:00 8.2 8 Sudoeste 12 Oeste 0 -- -- 81
2020-03-28 20:00:00 9.6 8 Oeste 12 Oeste 0 -- -- 76
2020-03-28 19:00:00 12.1 0 Calma 7 Este 0 -- -- 70
2020-03-28 18:00:00 14.3 5 Este 11 Sudeste 0 -- -- 55
2020-03-28 17:00:00 14.9 6 Sudeste 18 Este 0 -- -- 54
2020-03-28 16:00:00 14.6 8 Sudeste 19 Este 0 -- -- 55
2020-03-28 15:00:00 14.5 12 Nordeste 20 Este 0 -- -- 53
2020-03-28 14:00:00 14.8 7 Este 21 Este 0 -- -- 52
2020-03-28 13:00:00 14.6 8 Este 19 Nordeste 0 -- -- 52
2020-03-28 12:00:00 13.5 8 Este 20 Nordeste 0 -- -- 54
2020-03-28 11:00:00 13.1 6 Este 13 Este 0 -- -- 57
2020-03-28 10:00:00 12.1 4 Este 10 Este 0 -- -- 71
2020-03-28 09:00:00 8.5 2 Sur 10 Sudoeste 0 -- -- 84
2020-03-28 08:00:00 5.2 5 Sudoeste 9 Sudoeste 0 -- -- 96
2020-03-28 07:00:00 3.6 6 Sudoeste 12 Sudoeste 0 -- -- 95
2020-03-28 06:00:00 3.7 7 Sudoeste 10 Oeste 0 -- -- 96
2020-03-28 05:00:00 4.1 6 Sudoeste 10 Sudoeste 0 -- -- 95
2020-03-28 04:00:00 5 6 Oeste 10 Sudoeste 0 -- -- 96
2020-03-28 03:00:00 4.9 0 Calma 4 Sudoeste 0 -- -- 97
2020-03-28 02:00:00 6.1 3 Sudoeste 6 Sudoeste 0 -- -- 96
2020-03-28 01:00:00 6.2 0 Calma 9 Sudoeste 0 -- -- 96
2020-03-28 00:00:00 6.2 5 Oeste 10 Sudoeste 0 -- -- 96
2020-03-27 23:00:00 6.4 0 Calma 7 Oeste 0 -- -- 96
2020-03-27 22:00:00 6.7 5 Oeste 8 Oeste 0 -- -- 96
2020-03-27 21:00:00 7.1 3 Oeste 8 Sudoeste 0 -- -- 96
2020-03-27 20:00:00 7.4 0 Calma 4 Sudoeste 0.2 -- -- 95
2020-03-27 19:00:00 7.4 2 Oeste 4 Sudoeste 0.4 -- -- 94
2020-03-27 18:00:00 7.4 0 Calma 6 Nordeste 0.8 -- -- 92
2020-03-27 17:00:00 7.4 3 Nordeste 12 Nordeste 0.8 -- -- 92
2020-03-27 16:00:00 7.4 7 Nordeste 16 Nordeste 1 -- -- 92
2020-03-27 15:00:00 7.9 4 Nordeste 12 Nordeste 0.6 -- -- 92
2020-03-27 14:00:00 7.8 6 Nordeste 14 Nordeste 1.4 -- -- 94
2020-03-27 13:00:00 7.6 0 Calma 5 Norte 1.4 -- -- 92
2020-03-27 12:00:00 7.2 3 Nordeste 7 Este 2.2 -- -- 94
2020-03-27 11:00:00 7 4 Nordeste 9 Este 3 -- -- 95
2020-03-27 10:00:00 7 3 Sudeste 7 Este 0 -- -- 93
2020-03-27 09:00:00 6.6 2 Sur 6 Sudoeste 0.2 -- -- 94
2020-03-27 08:00:00 6.3 0 Calma 4 Este 1 -- -- 92
2020-03-27 07:00:00 6.4 0 Calma 5 Nordeste 0 -- -- 87
2020-03-27 06:00:00 6.3 0 Calma 7 Sudoeste 0 -- -- 89
2020-03-27 05:00:00 6 2 Oeste 3 Oeste 0 -- -- 88
2020-03-27 04:00:00 6.1 0 Calma 4 Sudoeste 0 -- -- 85
2020-03-27 03:00:00 6.4 0 Calma 6 Nordeste 0 -- -- 83
2020-03-27 02:00:00 6.9 2 Norte 12 Nordeste 0 -- -- 82
2020-03-27 01:00:00 7.4 6 Nordeste 21 Nordeste 0 -- -- 84
2020-03-27 00:00:00 7.8 0 Calma 11 Nordeste 0 -- -- 86
2020-03-26 23:00:00 8.1 5 Nordeste 14 Este 0 -- -- 85
2020-03-26 22:00:00 8 3 Este 13 Nordeste 0 -- -- 87
2020-03-26 21:00:00 7.8 4 Nordeste 6 Oeste 0 -- -- 87
2020-03-26 20:00:00 9.1 0 Calma 5 Oeste 0 -- -- 79
2020-03-26 19:00:00 9.6 0 Calma 11 Nordeste 0 -- -- 77
2020-03-26 18:00:00 10.3 5 Sudeste 24 Este 0 -- -- 68
2020-03-26 17:00:00 11.2 17 Nordeste 34 Este 0 -- -- 61
2020-03-26 16:00:00 14.8 6 Noroeste 18 Norte 0 -- -- 39
2020-03-26 15:00:00 14.2 5 Sur 10 Sudoeste 0 -- -- 44
2020-03-26 14:00:00 13.5 9 Norte 29 Nordeste 0 -- -- 46
2020-03-26 13:00:00 15.2 17 Norte 33 Norte 0 -- -- 42
2020-03-26 12:00:00 14.2 6 Norte 22 Norte 0 -- -- 49
2020-03-26 11:00:00 12.7 9 Norte 19 Sudoeste 0 -- -- 64
2020-03-26 10:00:00 11.6 5 Noroeste 19 Noroeste 0 -- -- 70
2020-03-26 09:00:00 8.7 5 Sudoeste 18 Oeste 0 -- -- 95
2020-03-26 08:00:00 6.1 5 Nordeste 13 Nordeste 0 -- -- 99
2020-03-26 07:00:00 4.3 3 Norte 9 Oeste 0 -- -- 97
2020-03-26 06:00:00 4.6 0 Calma 5 Sudoeste 0 -- -- 98
2020-03-26 05:00:00 5.2 2 Nordeste 4 Nordeste 0 -- -- 97
2020-03-26 04:00:00 5.6 0 Calma 6 Noroeste 0 -- -- 96
2020-03-26 03:00:00 6.5 3 Nordeste 18 Sudoeste 0 -- -- 96
2020-03-26 02:00:00 6.9 15 Sudoeste 28 Sudoeste 0 -- -- 97
2020-03-26 01:00:00 6.1 0 Calma 8 Nordeste 0.2 -- -- 97
2020-03-26 00:00:00 6.7 4 Nordeste 10 Sudoeste 0 -- -- 95
2020-03-25 23:00:00 7.3 0 Calma 4 Oeste 0.2 -- -- 95
2020-03-25 22:00:00 7.4 0 Calma 3 Norte 0 -- -- 95
2020-03-25 21:00:00 7.4 2 Nordeste 3 Nordeste 0 -- -- 95
2020-03-25 20:00:00 7.5 0 Calma 4 Sudeste 0 -- -- 94
2020-03-25 19:00:00 7.6 0 Calma 7 Este 0 -- -- 95
2020-03-25 18:00:00 7.6 4 Sudeste 8 Este 0 -- -- 94
2020-03-25 17:00:00 7.7 3 Este 16 Sudeste 1.2 -- -- 94
2020-03-25 16:00:00 8.3 5 Nordeste 16 Este 0.2 -- -- 91
2020-03-25 15:00:00 8.3 6 Este 12 Este 0.4 -- -- 94
2020-03-25 14:00:00 8.7 5 Este 12 Este 0 -- -- 91
2020-03-25 13:00:00 9.2 4 Este 10 Este 0 -- -- 87
2020-03-25 12:00:00 9.1 4 Nordeste 10 Norte 0 -- -- 86
2020-03-25 11:00:00 8.7 0 Calma 3 Este 0.2 -- -- 93
2020-03-25 10:00:00 8 2 Nordeste 6 Este 0.4 -- -- 95
2020-03-25 09:00:00 7.6 0 Calma 5 Oeste 0 -- -- 95
2020-03-25 08:00:00 7.3 4 Sudoeste 6 Noroeste 0.2 -- -- 96
2020-03-25 07:00:00 7.2 0 Calma 6 Noroeste 0 -- -- 96
2020-03-25 06:00:00 7.4 2 Oeste 4 Oeste 0.8 -- -- 96
2020-03-25 05:00:00 7.5 0 Calma 6 Sudoeste 0.4 -- -- 96
2020-03-25 04:00:00 7.7 3 Nordeste 14 Este 0.2 -- -- 95
2020-03-25 03:00:00 7.9 3 Sudoeste 14 Nordeste 0.2 -- -- 92
2020-03-25 02:00:00 8.7 8 Nordeste 19 Nordeste 0.4 -- -- 90
2020-03-25 01:00:00 9.2 7 Nordeste 17 Nordeste 0 -- -- 86
2020-03-25 00:00:00 9.4 9 Nordeste 18 Este 0 -- -- 86
2020-03-24 23:00:00 9.4 9 Nordeste 32 Nordeste 0 -- -- 84
2020-03-24 22:00:00 9.8 14 Nordeste 27 Nordeste 0 -- -- 82
2020-03-24 21:00:00 9.9 16 Nordeste 31 Nordeste 0 -- -- 83
2020-03-24 20:00:00 10 14 Nordeste 40 Nordeste 0 -- -- 84
2020-03-24 19:00:00 10.4 18 Nordeste 42 Nordeste 0 -- -- 84
2020-03-24 18:00:00 10.8 17 Nordeste 33 Nordeste 0.2 -- -- 83
2020-03-24 17:00:00 10.8 17 Nordeste 32 Este 0 -- -- 86
2020-03-24 16:00:00 10.5 12 Nordeste 40 Nordeste 0 -- -- 92
2020-03-24 15:00:00 10 19 Nordeste 37 Nordeste 0.4 -- -- 95
2020-03-24 14:00:00 10 19 Nordeste 37 Nordeste 0.6 -- -- 96
2020-03-24 13:00:00 10.1 22 Nordeste 41 Nordeste 2.4 -- -- 97
2020-03-24 12:00:00 10.4 24 Nordeste 44 Nordeste 0.4 -- -- 96
2020-03-24 11:00:00 10.5 19 Nordeste 44 Nordeste 0.4 -- -- 97
2020-03-24 10:00:00 10.3 21 Nordeste 37 Nordeste 6.2 -- -- 99
2020-03-24 09:00:00 10.1 23 Nordeste 46 Nordeste 5.6 -- -- 99
2020-03-24 08:00:00 10.5 19 Nordeste 38 Nordeste 8.4 -- -- 98
2020-03-24 07:00:00 10.8 18 Nordeste 42 Nordeste 5.2 -- -- 98
2020-03-24 06:00:00 10.9 18 Nordeste 40 Nordeste 3.2 -- -- 98
2020-03-24 05:00:00 11.2 19 Nordeste 42 Nordeste 1.8 -- -- 96
2020-03-24 04:00:00 11.4 18 Nordeste 34 Nordeste 4.4 -- -- 97
2020-03-24 03:00:00 11.4 13 Este 32 Nordeste 9 -- -- 97
2020-03-24 02:00:00 12 13 Nordeste 37 Nordeste 1.8 -- -- 97
2020-03-24 01:00:00 11.9 13 Nordeste 31 Nordeste 2 -- -- 96
2020-03-24 00:00:00 12 13 Nordeste 28 Nordeste 2 -- -- 95
2020-03-23 23:00:00 12 15 Nordeste 29 Nordeste 0.2 -- -- 93
2020-03-23 22:00:00 12 17 Nordeste 37 Nordeste 0.2 -- -- 91
2020-03-23 21:00:00 11.8 17 Nordeste 33 Nordeste 0.2 -- -- 92
2020-03-23 20:00:00 12 18 Nordeste 36 Nordeste 1.2 -- -- 94
2020-03-23 19:00:00 12 14 Nordeste 27 Nordeste 1.4 -- -- 94
2020-03-23 18:00:00 12.7 11 Nordeste 24 Nordeste 0 -- -- 92
2020-03-23 17:00:00 13.1 12 Nordeste 30 Nordeste 0 -- -- 91
2020-03-23 16:00:00 12.9 13 Nordeste 28 Nordeste 0 -- -- 92
2020-03-23 15:00:00 12.5 9 Nordeste 23 Nordeste 3.2 -- -- 95
2020-03-23 14:00:00 12.3 9 Norte 21 Norte 4.2 -- -- 93
2020-03-23 13:00:00 14.2 6 Este 15 Este 0 -- -- 86
2020-03-23 12:00:00 13.6 5 Este 10 Nordeste 0 -- -- 92
2020-03-23 11:00:00 11.8 0 Calma 6 Este 0.6 -- -- 96
2020-03-23 10:00:00 12 3 Este 7 Nordeste 0 -- -- 97
2020-03-23 09:00:00 11.2 3 Nordeste 7 Este 0 -- -- 98
2020-03-23 08:00:00 10.9 0 Calma 6 Nordeste 0.4 -- -- 98
2020-03-23 07:00:00 10.6 4 Norte 8 Nordeste 0 -- -- 98
2020-03-23 06:00:00 10.6 4 Norte 9 Nordeste 0.2 -- -- 98
2020-03-23 05:00:00 10.5 2 Nordeste 11 Este 2 -- -- 98
2020-03-23 04:00:00 10.6 3 Norte 6 Norte 0 -- -- 98
2020-03-23 03:00:00 10.6 3 Nordeste 8 Nordeste 0 -- -- 98
2020-03-23 02:00:00 10.6 4 Este 11 Este 0 -- -- 98
2020-03-23 01:00:00 9.9 3 Sudoeste 6 Sur 0.4 -- -- 97
2020-03-23 00:00:00 9.7 5 Sudoeste 10 Sudoeste 0.8 -- -- 97
2020-03-22 23:00:00 9.7 0 Calma 16 Sudoeste 13 -- -- 97
2020-03-22 22:00:00 9.7 4 Oeste 12 Norte 10.4 -- -- 96
2020-03-22 21:00:00 9.8 9 Norte 21 Norte 6.8 -- -- 96
2020-03-22 20:00:00 10.5 4 Nordeste 9 Nordeste 1 -- -- 97
2020-03-22 19:00:00 10.7 6 Este 9 Este 0.4 -- -- 96
2020-03-22 18:00:00 10.8 0 Calma 13 Nordeste 0.4 -- -- 95
2020-03-22 17:00:00 10.8 3 Nordeste 10 Sudeste 4.6 -- -- 95
2020-03-22 16:00:00 11.3 4 Sudeste 16 Este 0.4 -- -- 93
2020-03-22 15:00:00 11.6 8 Este 19 Este 0 -- -- 89
2020-03-22 14:00:00 11.7 6 Este 14 Este 0 -- -- 88
2020-03-22 13:00:00 12.3 4 Este 12 Este 0 -- -- 91
2020-03-22 12:00:00 11.3 2 Este 6 Nordeste 0.2 -- -- 92
2020-03-22 11:00:00 10 0 Calma 3 Sur 0.2 -- -- 96
2020-03-22 10:00:00 9.6 0 Calma 3 Sur 0 -- -- 98
2020-03-22 09:00:00 9.3 0 Calma 3 Sudoeste 0 -- -- 98
2020-03-22 08:00:00 9.1 0 Calma 2 Este 0.6 -- -- 98
2020-03-22 07:00:00 8.8 0 Calma 4 Oeste 0 -- -- 98
2020-03-22 06:00:00 8.9 3 Nordeste 4 Nordeste 0 -- -- 98
2020-03-22 05:00:00 8.8 2 Norte 3 Norte 0 -- -- 97
2020-03-22 04:00:00 8.6 0 Calma 5 Oeste 0 -- -- 97
2020-03-22 03:00:00 8.5 0 Calma 10 Sudoeste 0.8 -- -- 97
2020-03-22 02:00:00 8.5 4 Sudoeste 8 Sudoeste 0.4 -- -- 97
2020-03-22 01:00:00 8.6 0 Calma 5 Nordeste 0.4 -- -- 97
2020-03-22 00:00:00 8.7 0 Calma 4 Norte 2.8 -- -- 96
2020-03-21 23:00:00 8.8 0 Calma 8 Sudoeste 2.2 -- -- 95
2020-03-21 22:00:00 8.9 4 Sudoeste 9 Sudoeste 2 -- -- 94
2020-03-21 21:00:00 9.1 0 Calma 9 Sudoeste 2.8 -- -- 93
2020-03-21 20:00:00 9.8 6 Sudoeste 18 Sudoeste 1.4 -- -- 93
2020-03-21 19:00:00 10.8 3 Sudoeste 4 Sudoeste 0 -- -- 94
2020-03-21 18:00:00 10.8 2 Sudoeste 4 Norte 0 -- -- 93
2020-03-21 17:00:00 10.6 0 Calma 12 Nordeste 0 -- -- 93
2020-03-21 16:00:00 10.6 6 Nordeste 17 Este 0 -- -- 93
2020-03-21 15:00:00 10.6 3 Nordeste 7 Nordeste 0.2 -- -- 96
2020-03-21 14:00:00 10.4 4 Nordeste 10 Nordeste 0.2 -- -- 96
2020-03-21 13:00:00 10.4 4 Nordeste 8 Nordeste 0.6 -- -- 95
2020-03-21 12:00:00 10.2 0 Calma 4 Este 0.2 -- -- 94
2020-03-21 11:00:00 10 0 Calma 4 Nordeste 0.2 -- -- 94
2020-03-21 10:00:00 10 0 Calma 5 Sudeste 0.2 -- -- 93
2020-03-21 09:00:00 10.1 3 Sudoeste 5 Sudoeste 0 -- -- 94
2020-03-21 08:00:00 10.1 0 Calma 3 Oeste 0 -- -- 95
2020-03-21 07:00:00 10 0 Calma 2 Sudoeste 0 -- -- 95
2020-03-21 06:00:00 10 0 Calma 0 Calma 0 -- -- 95
2020-03-21 05:00:00 10 0 Calma 2 Nordeste 0 -- -- 95
2020-03-21 04:00:00 10.2 0 Calma 2 Norte 0 -- -- 94
2020-03-21 03:00:00 10.3 0 Calma 4 Norte 0 -- -- 95
2020-03-21 02:00:00 10.5 2 Norte 4 Norte 0 -- -- 95
2020-03-21 01:00:00 10.7 0 Calma 5 Nordeste 0.6 -- -- 95
2020-03-21 00:00:00 10.7 3 Nordeste 6 Nordeste 0.2 -- -- 95
2020-03-20 23:00:00 10.8 3 Nordeste 8 Este 0.2 -- -- 94
2020-03-20 22:00:00 10.5 0 Calma 7 Nordeste 0 -- -- 92
2020-03-20 21:00:00 10.4 0 Calma 4 Nordeste 0 -- -- 91
2020-03-20 20:00:00 10.7 3 Nordeste 11 Nordeste 0 -- -- 89
2020-03-20 19:00:00 11.6 5 Nordeste 10 Nordeste 0 -- -- 87
2020-03-20 18:00:00 12 6 Nordeste 13 Nordeste 0 -- -- 83
2020-03-20 17:00:00 12 0 Calma 9 Este 0 -- -- 87
2020-03-20 16:00:00 11.4 5 Este 17 Nordeste 0 -- -- 90
2020-03-20 15:00:00 12 8 Nordeste 14 Nordeste 0 -- -- 87
2020-03-20 14:00:00 11.5 9 Nordeste 15 Este 0 -- -- 91
2020-03-20 13:00:00 11.4 8 Nordeste 15 Nordeste 0.4 -- -- 93
2020-03-20 12:00:00 11.3 3 Este 8 Este 0 -- -- 92
2020-03-20 11:00:00 11.3 5 Nordeste 19 Nordeste 0 -- -- 88
2020-03-20 10:00:00 11.1 8 Nordeste 17 Nordeste 0 -- -- 89
2020-03-20 09:00:00 10.5 7 Nordeste 14 Nordeste 0 -- -- 92
2020-03-20 08:00:00 10.5 9 Nordeste 14 Nordeste 0 -- -- 92
2020-03-20 07:00:00 10.5 6 Nordeste 13 Nordeste 0 -- -- 92
2020-03-20 06:00:00 10.6 5 Nordeste 16 Nordeste 0 -- -- 92
2020-03-20 05:00:00 10.7 6 Nordeste 12 Este 0 -- -- 94
2020-03-20 04:00:00 10.7 4 Nordeste 7 Este 0 -- -- 94
2020-03-20 03:00:00 10.7 0 Calma 5 Nordeste 0 -- -- 94
2020-03-20 02:00:00 10.7 2 Norte 4 Nordeste 0 -- -- 94
2020-03-20 01:00:00 10.8 0 Calma 5 Nordeste 0 -- -- 94
2020-03-20 00:00:00 11 4 Nordeste 8 Norte 0 -- -- 94
2020-03-19 23:00:00 11.1 2 Nordeste 4 Nordeste 0 -- -- 95
2020-03-19 22:00:00 11.1 0 Calma 8 Nordeste 0 -- -- 94
2020-03-19 21:00:00 11.2 4 Nordeste 8 Nordeste 0 -- -- 94
2020-03-19 20:00:00 11.4 3 Nordeste 9 Nordeste 0 -- -- 94
2020-03-19 19:00:00 11.6 4 Nordeste 9 Nordeste 0 -- -- 93
2020-03-19 18:00:00 11.7 4 Nordeste 8 Norte 0 -- -- 94
2020-03-19 17:00:00 11.5 6 Nordeste 14 Nordeste 0.4 -- -- 94
2020-03-19 16:00:00 12.5 6 Nordeste 13 Este 0 -- -- 90
2020-03-19 15:00:00 12.4 4 Este 9 Nordeste 0.2 -- -- 93
2020-03-19 14:00:00 11.9 2 Este 5 Nordeste 0 -- -- 93
2020-03-19 13:00:00 11.7 3 Nordeste 16 Este 0.4 -- -- 93
2020-03-19 12:00:00 12.6 7 Este 16 Este 0 -- -- 86
2020-03-19 11:00:00 12 7 Este 15 Nordeste 0 -- -- 87
2020-03-19 10:00:00 11.7 9 Nordeste 15 Nordeste 0 -- -- 88
2020-03-19 09:00:00 10.8 0 Calma 2 Nordeste 0 -- -- 94
2020-03-19 08:00:00 10.3 0 Calma 0 Calma 0 -- -- 94
2020-03-19 07:00:00 10.1 0 Calma 3 Sudeste 0 -- -- 94
2020-03-19 06:00:00 9.9 0 Calma 2 Sudoeste 0 -- -- 93
2020-03-19 05:00:00 9.8 0 Calma 4 Norte 0 -- -- 93
2020-03-19 04:00:00 9.8 0 Calma 3 Sudoeste 0 -- -- 93
2020-03-19 03:00:00 9.6 0 Calma 2 Oeste 0 -- -- 93
2020-03-19 02:00:00 9.4 0 Calma 2 Noroeste 0 -- -- 94
2020-03-19 01:00:00 9.1 0 Calma 4 Norte 0 -- -- 94
2020-03-19 00:00:00 8.7 0 Calma 4 Sudoeste 0 -- -- 94
2020-03-18 23:00:00 8.3 0 Calma 3 Sudoeste 0 -- -- 93
2020-03-18 22:00:00 8.2 0 Calma 2 Sudoeste 0 -- -- 92
2020-03-18 21:00:00 9.2 0 Calma 5 Nordeste 0 -- -- 89
2020-03-18 20:00:00 10.6 4 Norte 14 Nordeste 0 -- -- 85
2020-03-18 19:00:00 12 9 Nordeste 22 Nordeste 0 -- -- 78
2020-03-18 18:00:00 13.6 13 Este 27 Este 0 -- -- 72
2020-03-18 17:00:00 15 14 Este 27 Este 0 -- -- 64
2020-03-18 16:00:00 15.9 13 Este 28 Este 0 -- -- 58
2020-03-18 15:00:00 16.2 14 Este 30 Nordeste 0 -- -- 63
2020-03-18 14:00:00 15.4 14 Nordeste 29 Nordeste 0 -- -- 61
2020-03-18 13:00:00 14.7 15 Nordeste 32 Nordeste 0 -- -- 67
2020-03-18 12:00:00 15.5 14 Este 28 Nordeste 0 -- -- 71
2020-03-18 11:00:00 13.1 9 Nordeste 19 Nordeste 0 -- -- 79
2020-03-18 10:00:00 12.3 8 Este 17 Nordeste 0 -- -- 83
2020-03-18 09:00:00 11.7 7 Nordeste 12 Nordeste 0 -- -- 84
2020-03-18 08:00:00 11.1 3 Este 15 Nordeste 0 -- -- 89
2020-03-18 07:00:00 11.3 10 Nordeste 24 Nordeste 0 -- -- 89
2020-03-18 06:00:00 11.5 12 Nordeste 23 Nordeste 0 -- -- 89
2020-03-18 05:00:00 11.4 12 Nordeste 25 Nordeste 0 -- -- 90
2020-03-18 04:00:00 11.5 10 Nordeste 20 Nordeste 0 -- -- 90
2020-03-18 03:00:00 11.5 8 Nordeste 19 Nordeste 0 -- -- 92
2020-03-18 02:00:00 11.6 11 Nordeste 24 Nordeste 0 -- -- 92
2020-03-18 01:00:00 11.7 11 Nordeste 24 Nordeste 0 -- -- 92
2020-03-18 00:00:00 11.9 13 Nordeste 27 Nordeste 0 -- -- 92
2020-03-17 23:00:00 11.9 14 Nordeste 27 Este 0 -- -- 93
2020-03-17 22:00:00 12 15 Nordeste 27 Nordeste 0 -- -- 93
2020-03-17 21:00:00 12.1 17 Nordeste 40 Nordeste 0 -- -- 94
2020-03-17 20:00:00 12.2 18 Nordeste 46 Nordeste 0.2 -- -- 96
2020-03-17 19:00:00 12.3 19 Nordeste 38 Nordeste 0.2 -- -- 96
2020-03-17 18:00:00 12.6 21 Nordeste 43 Nordeste 0.4 -- -- 96
2020-03-17 17:00:00 12.5 13 Nordeste 24 Nordeste 3.6 -- -- 97
2020-03-17 16:00:00 12.8 13 Nordeste 27 Nordeste 1.2 -- -- 96
2020-03-17 15:00:00 11.9 0 Calma 7 Nordeste 0.8 -- -- 96
2020-03-17 14:00:00 11.7 3 Sudoeste 5 Nordeste 0.2 -- -- 95
2020-03-17 13:00:00 11.3 0 Calma 6 Sur 1 -- -- 95
2020-03-17 12:00:00 11 3 Sudeste 4 Sudeste 0.6 -- -- 95
2020-03-17 11:00:00 9.8 2 Sudoeste 4 Sudoeste 1 -- -- 97
2020-03-17 10:00:00 9.1 0 Calma 7 Sudoeste 0.2 -- -- 97
2020-03-17 09:00:00 8.9 0 Calma 6 Oeste 0.8 -- -- 97
2020-03-17 08:00:00 8.4 0 Calma 5 Oeste 0.8 -- -- 96
2020-03-17 07:00:00 8.2 2 Sudoeste 4 Sur 1.4 -- -- 96
2020-03-17 06:00:00 8.1 0 Calma 6 Nordeste 0.2 -- -- 96
2020-03-17 05:00:00 8.1 0 Calma 6 Sudoeste 0.8 -- -- 95
2020-03-17 04:00:00 8 3 Noroeste 9 Sudoeste 0.6 -- -- 95
2020-03-17 03:00:00 7.8 0 Calma 8 Sudoeste 0 -- -- 94
2020-03-17 02:00:00 7.8 2 Sur 7 Sudoeste 0.2 -- -- 94
2020-03-17 01:00:00 7.6 0 Calma 4 Sudoeste 0 -- -- 94
2020-03-17 00:00:00 7.4 0 Calma 4 Nordeste 0 -- -- 94
2020-03-16 23:00:00 7 0 Calma 5 Sudoeste 0 -- -- 94
2020-03-16 22:00:00 6.7 0 Calma 7 Nordeste 0 -- -- 93
2020-03-16 21:00:00 6.4 3 Nordeste 11 Oeste 0.2 -- -- 92
2020-03-16 20:00:00 6.4 3 Noroeste 10 Sudoeste 0.4 -- -- 90
2020-03-16 19:00:00 6.6 3 Sudeste 14 Sudoeste 0 -- -- 87
2020-03-16 18:00:00 6.5 7 Sudoeste 14 Sudoeste 0 -- -- 85
2020-03-16 17:00:00 7.1 5 Sudeste 19 Sudoeste 0 -- -- 82
2020-03-16 16:00:00 7.5 3 Sudoeste 12 Sudoeste 0 -- -- 86
2020-03-16 15:00:00 7.6 4 Sur 13 Sudoeste 0.8 -- -- 85
2020-03-16 14:00:00 7.3 5 Sur 14 Sur 0.2 -- -- 85
2020-03-16 13:00:00 7.7 4 Sur 21 Sudoeste 1.2 -- -- 87
2020-03-16 12:00:00 7.8 4 Sudoeste 26 Oeste 0.2 -- -- 85
2020-03-16 11:00:00 8.3 3 Sur 34 Noroeste 0.6 -- -- 87
2020-03-16 10:00:00 11.9 10 Norte 33 Norte 0 -- -- 84
2020-03-16 09:00:00 12.3 5 Este 11 Este 0 -- -- 95
2020-03-16 08:00:00 11.9 6 Este 14 Este 0 -- -- 95
2020-03-16 07:00:00 11.9 5 Este 11 Este 0 -- -- 95
2020-03-16 06:00:00 11.8 2 Nordeste 5 Nordeste 0.4 -- -- 95
2020-03-16 05:00:00 11.9 0 Calma 5 Sudeste 0.4 -- -- 94
2020-03-16 04:00:00 12 0 Calma 6 Norte 1.6 -- -- 94
2020-03-16 03:00:00 12.3 0 Calma 4 Sudoeste 0 -- -- 91
2020-03-16 02:00:00 12.3 2 Este 12 Norte 0 -- -- 91
2020-03-16 01:00:00 12.6 0 Calma 5 Sudoeste 0.2 -- -- 90
2020-03-16 00:00:00 12.9 0 Calma 10 Norte 0 -- -- 86
2020-03-15 23:00:00 13.1 0 Calma 5 Nordeste 0 -- -- 81
2020-03-15 22:00:00 13.1 3 Nordeste 11 Norte 0 -- -- 81
2020-03-15 21:00:00 13.4 0 Calma 5 Nordeste 0 -- -- 81
2020-03-15 20:00:00 14 4 Este 14 Nordeste 0 -- -- 79
2020-03-15 19:00:00 14.7 9 Nordeste 20 Nordeste 0 -- -- 76
2020-03-15 18:00:00 16.1 10 Nordeste 18 Nordeste 0 -- -- 71
2020-03-15 17:00:00 16.9 9 Nordeste 18 Nordeste 0 -- -- 70
2020-03-15 16:00:00 17.5 10 Este 19 Este 0 -- -- 66
2020-03-15 15:00:00 18.9 11 Este 25 Este 0 -- -- 59
2020-03-15 14:00:00 19.8 10 Nordeste 24 Este 0 -- -- 55
2020-03-15 13:00:00 19.2 11 Sudeste 22 Este 0 -- -- 56
2020-03-15 12:00:00 18 9 Este 19 Este 0 -- -- 60
2020-03-15 11:00:00 16.8 6 Este 14 Este 0 -- -- 66
2020-03-15 10:00:00 15.2 6 Sudeste 11 Sudeste 0 -- -- 69
2020-03-15 09:00:00 13 5 Sudoeste 10 Sudoeste 0 -- -- 78
2020-03-15 08:00:00 11.2 5 Sudoeste 9 Sudoeste 0 -- -- 86
2020-03-15 07:00:00 10.9 4 Sudoeste 6 Sudoeste 0 -- -- 86
2020-03-15 06:00:00 10.7 3 Sudoeste 9 Oeste 0 -- -- 86
2020-03-15 05:00:00 10.3 0 Calma 8 Sudoeste 0 -- -- 86
2020-03-15 04:00:00 9.9 4 Sudoeste 8 Sudoeste 0 -- -- 87
2020-03-15 03:00:00 9.2 0 Calma 6 Oeste 0 -- -- 88
2020-03-15 02:00:00 8.9 3 Oeste 10 Sudoeste 0 -- -- 85
2020-03-15 01:00:00 9.6 3 Oeste 7 Oeste 0 -- -- 83
2020-03-15 00:00:00 9.7 3 Sudoeste 6 Oeste 0 -- -- 86
2020-03-14 23:00:00 10.5 5 Sudoeste 9 Sudoeste 0 -- -- 86
2020-03-14 22:00:00 11 5 Sudoeste 8 Sudoeste 0 -- -- 85
2020-03-14 21:00:00 11.9 0 Calma 2 Sudoeste 0 -- -- 81
2020-03-14 20:00:00 13.5 0 Calma 6 Este 0 -- -- 77
2020-03-14 19:00:00 14.9 4 Nordeste 15 Nordeste 0 -- -- 73
2020-03-14 18:00:00 16.9 9 Este 18 Este 0 -- -- 67
2020-03-14 17:00:00 20.1 10 Este 20 Este 0 -- -- 55
2020-03-14 16:00:00 21.4 9 Este 23 Este 0 -- -- 49
2020-03-14 15:00:00 21.2 11 Nordeste 19 Este 0 -- -- 46
2020-03-14 14:00:00 21.4 7 Este 14 Sudeste 0 -- -- 46
2020-03-14 13:00:00 20.1 6 Este 12 Este 0 -- -- 45
2020-03-14 12:00:00 19.4 5 Sudeste 14 Sur 0 -- -- 45
2020-03-14 11:00:00 18.1 6 Sudeste 13 Este 0 -- -- 57
2020-03-14 10:00:00 15.7 3 Este 7 Este 0 -- -- 63
2020-03-14 09:00:00 10.8 5 Sudoeste 11 Sudoeste 0 -- -- 77
2020-03-14 08:00:00 7.9 0 Calma 9 Oeste 0 -- -- 89
2020-03-14 07:00:00 7.6 6 Oeste 8 Oeste 0 -- -- 92
2020-03-14 06:00:00 7.9 0 Calma 5 Sur 0 -- -- 92
2020-03-14 05:00:00 8.2 0 Calma 8 Sudoeste 0 -- -- 92
2020-03-14 04:00:00 8.8 0 Calma 10 Sudoeste 0 -- -- 91
2020-03-14 03:00:00 9 0 Calma 5 Sudoeste 0 -- -- 91
2020-03-14 02:00:00 10.2 3 Sudoeste 6 Oeste 0 -- -- 89
2020-03-14 01:00:00 9.8 3 Sudoeste 7 Oeste 0 -- -- 90
2020-03-14 00:00:00 10.1 4 Sudoeste 5 Oeste 0 -- -- 90
2020-03-13 23:00:00 10.8 0 Calma 0 Calma 0 -- -- 88
2020-03-13 22:00:00 11.4 0 Calma 2 Noroeste 0 -- -- 87
2020-03-13 21:00:00 11.7 0 Calma 2 Sudoeste 0 -- -- 84
2020-03-13 20:00:00 12.4 0 Calma 4 Nordeste 0 -- -- 82
2020-03-13 19:00:00 14 3 Este 13 Este 0 -- -- 78
2020-03-13 18:00:00 15.2 7 Este 15 Este 0 -- -- 72
2020-03-13 17:00:00 15.8 10 Este 19 Nordeste 0 -- -- 70
2020-03-13 16:00:00 16.8 12 Nordeste 22 Este 0 -- -- 64
2020-03-13 15:00:00 17.8 11 Este 22 Este 0 -- -- 60
2020-03-13 14:00:00 17.6 12 Nordeste 21 Nordeste 0 -- -- 60
2020-03-13 13:00:00 16.8 7 Este 19 Nordeste 0 -- -- 62
2020-03-13 12:00:00 16.2 10 Este 15 Nordeste 0 -- -- 64
2020-03-13 11:00:00 15.3 4 Este 6 Este 0 -- -- 71
2020-03-13 10:00:00 13.9 4 Este 11 Este 0 -- -- 75
2020-03-13 09:00:00 11.9 0 Calma 3 Sudoeste 0 -- -- 86
2020-03-13 08:00:00 10.8 0 Calma 8 Noroeste 0 -- -- 88
2020-03-13 07:00:00 9.7 0 Calma 6 Sudoeste 0 -- -- 90
2020-03-13 06:00:00 8.6 2 Sudoeste 4 Sudoeste 0 -- -- 92
2020-03-13 05:00:00 8.6 0 Calma 6 Oeste 0 -- -- 90
2020-03-13 04:00:00 9.3 3 Oeste 9 Oeste 0 -- -- 90
2020-03-13 03:00:00 9 0 Calma 6 Oeste 0 -- -- 89
2020-03-13 02:00:00 9.4 0 Calma 6 Oeste 0 -- -- 88
2020-03-13 01:00:00 10 0 Calma 4 Norte 0 -- -- 85
2020-03-13 00:00:00 10.7 0 Calma 2 Norte 0 -- -- 83
2020-03-12 23:00:00 12 0 Calma 3 Noroeste 0 -- -- 78
2020-03-12 22:00:00 13.1 0 Calma 3 Oeste 0 -- -- 74
2020-03-12 21:00:00 14.3 0 Calma 2 Norte 0 -- -- 72
2020-03-12 20:00:00 16.3 0 Calma 6 Norte 0 -- -- 67
2020-03-12 19:00:00 19.1 4 Nordeste 11 Este 0 -- -- 58
2020-03-12 18:00:00 21.5 9 Este 14 Este 0 -- -- 51
2020-03-12 17:00:00 23.4 8 Este 15 Este 0 -- -- 47
2020-03-12 16:00:00 25 9 Este 16 Este 0 -- -- 41
2020-03-12 15:00:00 25.7 7 Nordeste 14 Nordeste 0 -- -- 40
2020-03-12 14:00:00 25.6 8 Este 13 Este 0 -- -- 40
2020-03-12 13:00:00 25.2 6 Este 12 Este 0 -- -- 40
2020-03-12 12:00:00 23.8 8 Este 11 Este 0 -- -- 43
2020-03-12 11:00:00 22.6 5 Este 9 Este 0 -- -- 46
2020-03-12 10:00:00 19.2 3 Sudeste 4 Sudeste 0 -- -- 59
2020-03-12 09:00:00 15 4 Sudoeste 5 Sudoeste 0 -- -- 72
2020-03-12 08:00:00 10.6 0 Calma 6 Oeste 0 -- -- 82
2020-03-12 07:00:00 9.1 0 Calma 4 Noroeste 0 -- -- 83
2020-03-12 06:00:00 9 0 Calma 7 Norte 0 -- -- 83
2020-03-12 05:00:00 8.9 0 Calma 2 Sudoeste 0 -- -- 83
2020-03-12 04:00:00 9.3 0 Calma 4 Norte 0 -- -- 80
2020-03-12 03:00:00 9.6 0 Calma 2 Nordeste 0 -- -- 79
2020-03-12 02:00:00 10.7 0 Calma 6 Sudoeste 0 -- -- 74
2020-03-12 01:00:00 10.8 0 Calma 5 Oeste 0 -- -- 73
2020-03-12 00:00:00 11.9 0 Calma 9 Oeste 0 -- -- 70
2020-03-11 23:00:00 12.4 2 Oeste 8 Oeste 0 -- -- 69
2020-03-11 22:00:00 13.7 4 Oeste 7 Oeste 0 -- -- 65
2020-03-11 21:00:00 14.3 0 Calma 6 Oeste 0 -- -- 63
2020-03-11 20:00:00 16.6 0 Calma 7 Nordeste 0 -- -- 57
2020-03-11 19:00:00 19.3 5 Nordeste 11 Este 0 -- -- 48
2020-03-11 18:00:00 22.5 9 Este 16 Este 0 -- -- 41
2020-03-11 17:00:00 24.9 8 Sudeste 17 Este 0 -- -- 37
2020-03-11 16:00:00 26.3 10 Sudeste 23 Este 0 -- -- 35
2020-03-11 15:00:00 27.9 11 Este 19 Este 0 -- -- 30
2020-03-11 14:00:00 27.8 9 Este 17 Este 0 -- -- 32
2020-03-11 13:00:00 27.5 8 Sudeste 17 Sudeste 0 -- -- 32
2020-03-11 12:00:00 26.6 9 Este 15 Este 0 -- -- 37
2020-03-11 11:00:00 24.3 3 Este 8 Este 0 -- -- 39
2020-03-11 10:00:00 21.5 4 Sudeste 9 Nordeste 0 -- -- 44
2020-03-11 09:00:00 17.9 0 Calma 5 Norte 0 -- -- 53
2020-03-11 08:00:00 13.4 0 Calma 6 Oeste 0 -- -- 60
2020-03-11 07:00:00 14.1 2 Norte 10 Oeste 0 -- -- 56
2020-03-11 06:00:00 14.8 5 Oeste 12 Oeste 0 -- -- 53
2020-03-11 05:00:00 17.3 6 Oeste 13 Oeste 0 -- -- 46
2020-03-11 04:00:00 18.8 6 Noroeste 19 Noroeste 0 -- -- 42
2020-03-11 03:00:00 15.7 5 Oeste 13 Oeste 0 -- -- 51
2020-03-11 02:00:00 10.9 3 Sudoeste 8 Oeste 0 -- -- 74
2020-03-11 01:00:00 10.8 0 Calma 6 Sudoeste 0 -- -- 73
2020-03-11 00:00:00 11.4 0 Calma 5 Sudoeste 0 -- -- 71
2020-03-10 23:00:00 12.2 0 Calma 5 Sudoeste 0 -- -- 68
2020-03-10 22:00:00 13.4 0 Calma 7 Norte 0 -- -- 64
2020-03-10 21:00:00 14.5 0 Calma 6 Sudoeste 0 -- -- 60
2020-03-10 20:00:00 16.3 2 Norte 6 Oeste 0 -- -- 56
2020-03-10 19:00:00 18.7 0 Calma 4 Norte 0 -- -- 51
2020-03-10 18:00:00 23.5 2 Oeste 10 Sudoeste 0 -- -- 39
2020-03-10 17:00:00 24.5 8 Sudoeste 21 Sudoeste 0 -- -- 33
2020-03-10 16:00:00 24.8 4 Sur 19 Nordeste 0 -- -- 29
2020-03-10 15:00:00 23.9 7 Sur 19 Sudoeste 0 -- -- 31
2020-03-10 14:00:00 22.2 6 Sur 19 Sudoeste 0 -- -- 33
2020-03-10 13:00:00 20.1 7 Sudoeste 13 Sudoeste 0 -- -- 37
2020-03-10 12:00:00 18.1 6 Sudoeste 13 Sudoeste 0 -- -- 39
2020-03-10 11:00:00 15.6 6 Sur 14 Sur 0 -- -- 46
2020-03-10 10:00:00 14.9 4 Sudoeste 8 Sur 0 -- -- 48
2020-03-10 09:00:00 12.8 3 Nordeste 8 Norte 0 -- -- 53
2020-03-10 08:00:00 10 3 Nordeste 8 Norte 0 -- -- 57
2020-03-10 07:00:00 9.9 0 Calma 7 Sudoeste 0 -- -- 56
2020-03-10 06:00:00 11.9 3 Sudoeste 16 Oeste 0 -- -- 48
2020-03-10 05:00:00 12.5 4 Noroeste 16 Oeste 0 -- -- 45
2020-03-10 04:00:00 12.7 4 Noroeste 17 Noroeste 0 -- -- 45
2020-03-10 03:00:00 12.7 4 Oeste 15 Norte 0 -- -- 46
2020-03-10 02:00:00 12.2 0 Calma 9 Noroeste 0 -- -- 48
2020-03-10 01:00:00 13.3 3 Sur 14 Noroeste 0 -- -- 44
2020-03-10 00:00:00 14.9 4 Noroeste 10 Noroeste 0 -- -- 40
2020-03-09 23:00:00 15.8 5 Noroeste 20 Norte 0 -- -- 36
2020-03-09 22:00:00 15.6 2 Noroeste 10 Noroeste 0 -- -- 36
2020-03-09 21:00:00 16.3 0 Calma 15 Oeste 0 -- -- 35
2020-03-09 20:00:00 16.7 3 Noroeste 15 Oeste 0 -- -- 35
2020-03-09 19:00:00 18.9 5 Oeste 22 Sudoeste 0 -- -- 31
2020-03-09 18:00:00 21.4 9 Sudoeste 25 Oeste 0 -- -- 26
2020-03-09 17:00:00 22.1 9 Sudoeste 26 Sudoeste 0 -- -- 25
2020-03-09 16:00:00 22.2 8 Oeste 21 Oeste 0 -- -- 26
2020-03-09 15:00:00 22.2 9 Oeste 30 Sudoeste 0 -- -- 27
2020-03-09 14:00:00 20 10 Noroeste 34 Sudoeste 0 -- -- 33
2020-03-09 13:00:00 18.7 10 Oeste 27 Sudoeste 0 -- -- 35
2020-03-09 12:00:00 17.5 6 Noroeste 26 Noroeste 0 -- -- 39
2020-03-09 11:00:00 15.6 8 Noroeste 19 Norte 0 -- -- 43
2020-03-09 10:00:00 14.7 5 Noroeste 19 Noroeste 0 -- -- 49
2020-03-09 09:00:00 12.7 5 Sudoeste 17 Oeste 0 -- -- 59
2020-03-09 08:00:00 8.5 0 Calma 6 Norte 0 -- -- 73
2020-03-09 07:00:00 8.7 3 Oeste 7 Oeste 0 -- -- 70
2020-03-09 06:00:00 11.4 5 Sudoeste 17 Sudoeste 0 -- -- 60
2020-03-09 05:00:00 12.8 6 Oeste 22 Sudoeste 0 -- -- 55
2020-03-09 04:00:00 13.7 6 Sudoeste 18 Sudoeste 0 -- -- 51
2020-03-09 03:00:00 14.5 5 Sudoeste 21 Oeste 0 -- -- 48
2020-03-09 02:00:00 15.4 4 Este 11 Noroeste 0 -- -- 43
2020-03-09 01:00:00 15.9 4 Oeste 22 Oeste 0 -- -- 42
2020-03-09 00:00:00 17.1 8 Sudoeste 32 Sudoeste 0 -- -- 38
2020-03-08 23:00:00 17.6 9 Sudoeste 22 Oeste 0 -- -- 36
2020-03-08 22:00:00 18.3 11 Sudoeste 28 Sudoeste 0 -- -- 30
2020-03-08 21:00:00 18.6 11 Sudoeste 35 Sudoeste 0 -- -- 29
2020-03-08 20:00:00 19.2 19 Sudoeste 37 Sudoeste 0 -- -- 29
2020-03-08 19:00:00 19.6 9 Sudoeste 34 Sudoeste 0 -- -- 29
2020-03-08 18:00:00 20.9 14 Sudoeste 39 Oeste 0 -- -- 29
2020-03-08 17:00:00 22 18 Sudoeste 42 Sudoeste 0 -- -- 26
2020-03-08 16:00:00 22.6 14 Sudoeste 38 Sudoeste 0 -- -- 26
2020-03-08 15:00:00 22.2 19 Sudoeste 42 Sudoeste 0 -- -- 28
2020-03-08 14:00:00 21.8 16 Sudoeste 30 Sudoeste 0 -- -- 28
2020-03-08 13:00:00 20.7 11 Sudoeste 27 Sudoeste 0 -- -- 29
2020-03-08 12:00:00 19.9 11 Sudoeste 34 Oeste 0 -- -- 33
2020-03-08 11:00:00 18.1 8 Este 22 Noroeste 0 -- -- 38
2020-03-08 10:00:00 15.9 4 Este 9 Este 0 -- -- 48
2020-03-08 09:00:00 10.8 4 Este 8 Este 0 -- -- 66
2020-03-08 08:00:00 5.7 2 Nordeste 6 Nordeste 0 -- -- 83
2020-03-08 07:00:00 5.2 0 Calma 8 Sudoeste 0 -- -- 79
2020-03-08 06:00:00 7 3 Norte 8 Norte 0 -- -- 74
2020-03-08 05:00:00 6.5 3 Norte 8 Este 0 -- -- 74
2020-03-08 04:00:00 7.9 2 Nordeste 14 Sur 0 -- -- 69
2020-03-08 03:00:00 6.1 0 Calma 3 Sudoeste 0 -- -- 75
2020-03-08 02:00:00 7.1 0 Calma 3 Nordeste 0 -- -- 70
2020-03-08 01:00:00 8.1 0 Calma 12 Nordeste 0 -- -- 66
2020-03-08 00:00:00 11.4 4 Norte 11 Nordeste 0 -- -- 54
2020-03-07 23:00:00 10.4 2 Este 11 Oeste 0 -- -- 57
2020-03-07 22:00:00 10.4 0 Calma 11 Sudoeste 0 -- -- 57
2020-03-07 21:00:00 11.3 9 Sudoeste 13 Oeste 0 -- -- 55
2020-03-07 20:00:00 13.4 4 Oeste 10 Oeste 0 -- -- 49
2020-03-07 19:00:00 15.8 2 Noroeste 15 Nordeste 0 -- -- 41
2020-03-07 18:00:00 17.8 9 Norte 24 Norte 0 -- -- 36
2020-03-07 17:00:00 18.4 14 Nordeste 31 Norte 0 -- -- 35
2020-03-07 16:00:00 17.8 13 Norte 27 Norte 0 -- -- 35
2020-03-07 15:00:00 17.9 5 Oeste 25 Norte 0 -- -- 37
2020-03-07 14:00:00 16.2 13 Noroeste 34 Noroeste 0 -- -- 40
2020-03-07 13:00:00 14.9 9 Noroeste 32 Sudoeste 0 -- -- 41
2020-03-07 12:00:00 13.3 7 Oeste 32 Sudoeste 0 -- -- 44
2020-03-07 11:00:00 11 8 Oeste 35 Noroeste 0 -- -- 46
2020-03-07 10:00:00 10.5 10 Oeste 33 Noroeste 0 -- -- 44
2020-03-07 09:00:00 9 6 Noroeste 32 Sudoeste 0 -- -- 48
2020-03-07 08:00:00 8.9 8 Sudoeste 18 Sudoeste 0 -- -- 46
2020-03-07 07:00:00 8.2 6 Sudeste 28 Sudoeste 0 -- -- 49
2020-03-07 06:00:00 7.8 6 Sudoeste 22 Oeste 0 -- -- 51
2020-03-07 05:00:00 7.9 4 Oeste 21 Oeste 0 -- -- 50
2020-03-07 04:00:00 8.1 8 Sudoeste 22 Sudoeste 0 -- -- 50
2020-03-07 03:00:00 7.5 5 Oeste 13 Oeste 0 -- -- 50
2020-03-07 02:00:00 7.7 0 Calma 6 Noroeste 0 -- -- 48
2020-03-07 01:00:00 9.7 3 Oeste 15 Noroeste 0 -- -- 41
2020-03-07 00:00:00 10.8 4 Oeste 21 Noroeste 0 -- -- 36
2020-03-06 23:00:00 10.6 4 Oeste 12 Sudoeste 0 -- -- 37
2020-03-06 22:00:00 11.1 4 Sudoeste 15 Sudoeste 0 -- -- 35
2020-03-06 21:00:00 12.2 4 Oeste 18 Norte 0 -- -- 33
2020-03-06 20:00:00 13.2 9 Noroeste 24 Norte 0 -- -- 31
2020-03-06 19:00:00 13.6 4 Noroeste 21 Noroeste 0 -- -- 32
2020-03-06 18:00:00 14.6 5 Noroeste 32 Noroeste 0 -- -- 30
2020-03-06 17:00:00 15.1 7 Noroeste 36 Noroeste 0 -- -- 31
2020-03-06 16:00:00 16.8 10 Oeste 46 Sudoeste 0 -- -- 28
2020-03-06 15:00:00 16.8 12 Noroeste 45 Noroeste 0 -- -- 28
2020-03-06 14:00:00 17.1 15 Oeste 48 Sudoeste 0 -- -- 31
2020-03-06 13:00:00 15.6 17 Oeste 55 Sudoeste 0 -- -- 35
2020-03-06 12:00:00 15.1 15 Sudoeste 43 Sudoeste 0 -- -- 44
2020-03-06 11:00:00 13.5 15 Sudoeste 38 Sudoeste 0 -- -- 48
2020-03-06 10:00:00 11.7 15 Sudoeste 52 Oeste 0 -- -- 55
2020-03-06 09:00:00 10.9 19 Sudoeste 41 Sudoeste 0 -- -- 58
2020-03-06 08:00:00 9.6 18 Sudoeste 47 Sudoeste 0 -- -- 61
2020-03-06 07:00:00 9.6 17 Sudoeste 40 Oeste 0 -- -- 60
2020-03-06 06:00:00 10.2 18 Sudoeste 48 Sudoeste 0 -- -- 58
2020-03-06 05:00:00 10.7 6 Sur 30 Sudoeste 0 -- -- 60
2020-03-06 04:00:00 11.3 7 Sudoeste 24 Oeste 0 -- -- 60
2020-03-06 03:00:00 11.8 4 Sudoeste 26 Noroeste 0 -- -- 60
2020-03-06 02:00:00 12.7 3 Sudoeste 22 Oeste 0 -- -- 58
2020-03-06 01:00:00 13.4 4 Noroeste 30 Sudoeste 0 -- -- 54
2020-03-06 00:00:00 14 7 Oeste 23 Sudoeste 0 -- -- 52
2020-03-05 23:00:00 14.5 5 Oeste 21 Sudoeste 0 -- -- 51
2020-03-05 22:00:00 14.5 3 Sudoeste 16 Nordeste 0 -- -- 49
2020-03-05 21:00:00 15.5 5 Norte 20 Noroeste 0 -- -- 45
2020-03-05 20:00:00 16.3 12 Norte 27 Sur 0 -- -- 44
2020-03-05 19:00:00 17.4 10 Sudeste 33 Oeste 0 -- -- 46
2020-03-05 18:00:00 18.2 19 Sudoeste 63 Sudoeste 0 -- -- 47
2020-03-05 17:00:00 19.2 35 Sudoeste 76 Sudoeste 0 -- -- 49
2020-03-05 16:00:00 19.4 37 Sudoeste 78 Sudoeste 0 -- -- 50
2020-03-05 15:00:00 20 35 Sudoeste 75 Sudoeste 0 -- -- 49
2020-03-05 14:00:00 20.2 44 Sudoeste 81 Oeste 0 -- -- 46
2020-03-05 13:00:00 20.5 34 Sudoeste 72 Sudoeste 0 -- -- 46
2020-03-05 12:00:00 19 16 Sudoeste 80 Sudoeste 0 -- -- 49
2020-03-05 11:00:00 18.2 13 Sudoeste 52 Sudoeste 0 -- -- 51
2020-03-05 10:00:00 16.6 14 Sudoeste 40 Sur 0 -- -- 57
2020-03-05 09:00:00 14.4 4 Sur 33 Oeste 0 -- -- 66
2020-03-05 08:00:00 14 8 Sudeste 27 Nordeste 0 -- -- 65
2020-03-05 07:00:00 14 10 Oeste 31 Noroeste 0 -- -- 65
2020-03-05 06:00:00 13.6 8 Oeste 31 Oeste 0 -- -- 64
2020-03-05 05:00:00 13.3 10 Sudoeste 36 Oeste 0 -- -- 64
2020-03-05 04:00:00 13.8 10 Sudoeste 35 Sudoeste 0 -- -- 62
2020-03-05 03:00:00 13.9 9 Sudoeste 28 Sudoeste 0 -- -- 61
2020-03-05 02:00:00 13.5 4 Sur 18 Sudoeste 0 -- -- 62
2020-03-05 01:00:00 14.4 6 Este 28 Oeste 0 -- -- 59
2020-03-05 00:00:00 14.8 9 Oeste 24 Sudoeste 0 -- -- 57
2020-03-04 23:00:00 15.4 9 Sudoeste 37 Sudoeste 0 -- -- 56
2020-03-04 22:00:00 15.8 10 Sudoeste 31 Oeste 0 -- -- 56
2020-03-04 21:00:00 16.4 15 Sudoeste 43 Sudoeste 0 -- -- 55
2020-03-04 20:00:00 17 18 Sudoeste 45 Sudoeste 0 -- -- 52
2020-03-04 19:00:00 17.5 14 Sudoeste 40 Sudoeste 0 -- -- 52
2020-03-04 18:00:00 19 18 Sudoeste 36 Sudoeste 0 -- -- 48
2020-03-04 17:00:00 19.8 21 Sudoeste 42 Sudoeste 0 -- -- 48
2020-03-04 16:00:00 20.4 14 Sudoeste 35 Sudoeste 0 -- -- 48
2020-03-04 15:00:00 19.7 13 Oeste 41 Sudoeste 0 -- -- 51
2020-03-04 14:00:00 20.3 10 Sudoeste 39 Sudoeste 0 -- -- 52
2020-03-04 13:00:00 18.9 8 Sudoeste 29 Sudoeste 0 -- -- 58
2020-03-04 12:00:00 18.9 15 Sudoeste 44 Sudoeste 0 -- -- 58
2020-03-04 11:00:00 18.6 8 Sudoeste 35 Sudoeste 0 -- -- 60
2020-03-04 10:00:00 17.4 11 Oeste 48 Oeste 0 -- -- 63
2020-03-04 09:00:00 16.3 21 Sudoeste 48 Sudoeste 0 -- -- 66
2020-03-04 08:00:00 15.8 14 Oeste 61 Oeste 0 -- -- 68
2020-03-04 07:00:00 15.6 18 Sudoeste 62 Sudoeste 0 -- -- 69
2020-03-04 06:00:00 15.7 22 Sudoeste 58 Oeste 0 -- -- 69
2020-03-04 05:00:00 16 16 Sudoeste 53 Sudoeste 0 -- -- 67
2020-03-04 04:00:00 16.2 12 Sudoeste 37 Sudoeste 0 -- -- 67
2020-03-04 03:00:00 16.2 19 Sudoeste 46 Oeste 0 -- -- 67
2020-03-04 02:00:00 16.2 13 Sudoeste 51 Sudoeste 0 -- -- 67
2020-03-04 01:00:00 16.4 13 Oeste 45 Oeste 0 -- -- 66
2020-03-04 00:00:00 16.4 16 Sudoeste 49 Sudoeste 0 -- -- 65
2020-03-03 23:00:00 16.2 10 Oeste 47 Sudoeste 0 -- -- 63
2020-03-03 22:00:00 16.2 20 Sudoeste 55 Oeste 0 -- -- 62
2020-03-03 21:00:00 16.2 17 Sudoeste 66 Sudoeste 0 -- -- 61
2020-03-03 20:00:00 16.1 21 Sudoeste 53 Sudoeste 0 -- -- 60
2020-03-03 19:00:00 16.1 14 Sudoeste 59 Sudoeste 0 -- -- 58
2020-03-03 18:00:00 17.1 19 Sudoeste 68 Oeste 0 -- -- 54
2020-03-03 17:00:00 17.6 23 Sudoeste 73 Sudoeste 0 -- -- 51
2020-03-03 16:00:00 18.7 18 Sudoeste 76 Sudoeste 0 -- -- 47
2020-03-03 15:00:00 18 27 Sudoeste 91 Sudoeste 0 -- -- 47
2020-03-03 14:00:00 16.4 41 Sudoeste 76 Sudoeste 0 -- -- 49
2020-03-03 13:00:00 14.6 35 Sudoeste 66 Oeste 0 -- -- 52
2020-03-03 12:00:00 13 13 Oeste 45 Sudoeste 0 -- -- 53
2020-03-03 11:00:00 13 9 Sur 31 Este 0 -- -- 52
2020-03-03 10:00:00 11.1 7 Oeste 27 Norte 0 -- -- 58
2020-03-03 09:00:00 10.1 8 Sur 27 Sudoeste 0 -- -- 60
2020-03-03 08:00:00 9.3 5 Sudeste 23 Sudoeste 0 -- -- 58
2020-03-03 07:00:00 8.9 3 Sur 22 Sudoeste 0 -- -- 59
2020-03-03 06:00:00 9 10 Sudoeste 26 Oeste 0 -- -- 58
2020-03-03 05:00:00 8.4 4 Noroeste 25 Oeste 0 -- -- 62
2020-03-03 04:00:00 6.7 3 Norte 14 Sur 0 -- -- 63
2020-03-03 03:00:00 8.4 8 Sudoeste 19 Sudoeste 0 -- -- 53
2020-03-03 02:00:00 8.7 3 Sudoeste 20 Noroeste 0 -- -- 52
2020-03-03 01:00:00 9.5 5 Sudoeste 17 Sudoeste 0 -- -- 49
2020-03-03 00:00:00 9.9 6 Sudoeste 30 Sudoeste 0 -- -- 47
2020-03-02 23:00:00 10.4 10 Sudoeste 33 Oeste 0 -- -- 45
2020-03-02 22:00:00 10.8 9 Oeste 32 Noroeste 0 -- -- 46
2020-03-02 21:00:00 10.6 11 Sudoeste 31 Sudoeste 0 -- -- 46
2020-03-02 20:00:00 10.6 3 Sur 27 Sudoeste 0 -- -- 51
2020-03-02 19:00:00 11.2 4 Sudoeste 31 Oeste 0 -- -- 49
2020-03-02 18:00:00 11.5 13 Sudoeste 50 Oeste 2 -- -- 61
2020-03-02 17:00:00 14.4 14 Oeste 53 Sudoeste 0.2 -- -- 48
2020-03-02 16:00:00 16.6 11 Oeste 36 Noroeste 0 -- -- 40
2020-03-02 15:00:00 17.3 7 Oeste 60 Sudoeste 0 -- -- 38
2020-03-02 14:00:00 19.7 22 Oeste 69 Oeste 0 -- -- 32
2020-03-02 13:00:00 19.3 12 Sudoeste 80 Sudoeste 0 -- -- 38
2020-03-02 12:00:00 19.2 35 Sudoeste 68 Sudoeste 0 -- -- 42
2020-03-02 11:00:00 17.2 30 Sudoeste 90 Sudoeste 0 -- -- 63
2020-03-02 10:00:00 19.2 28 Sudoeste 74 Sudoeste 0 -- -- 49
2020-03-02 09:00:00 17.4 28 Sudoeste 59 Sudoeste 0 -- -- 52
2020-03-02 08:00:00 16.9 23 Sudoeste 67 Sudoeste 0 -- -- 49
2020-03-02 07:00:00 16.6 32 Sudoeste 80 Sudoeste 0 -- -- 53
2020-03-02 06:00:00 16 40 Sudoeste 86 Sudoeste 0 -- -- 54
2020-03-02 05:00:00 16.4 41 Sudoeste 82 Sudoeste 0 -- -- 51
2020-03-02 04:00:00 -- -- -- -- -- -- -- -- --
2020-03-02 03:00:00 15.8 27 Sudoeste 68 Sudoeste 0 -- -- 56
2020-03-02 02:00:00 15.7 27 Sudoeste 55 Sudoeste 0 -- -- 56
2020-03-02 01:00:00 13.6 6 Norte 16 Sudeste 0 -- -- 61
2020-03-02 00:00:00 13.7 0 Calma 22 Sur 0 -- -- 60
2020-03-01 23:00:00 14.6 6 Sudoeste 30 Sudoeste 0 -- -- 57
2020-03-01 22:00:00 14.6 13 Sudoeste 27 Sudoeste 0 -- -- 58
2020-03-01 21:00:00 14.3 6 Sudoeste 22 Sudoeste 0 -- -- 58
2020-03-01 20:00:00 15.7 4 Sudoeste 21 Sudoeste 0 -- -- 54
2020-03-01 19:00:00 17.1 5 Oeste 21 Sudeste 0 -- -- 51
2020-03-01 18:00:00 19 10 Sudeste 41 Sudoeste 0 -- -- 45
2020-03-01 17:00:00 19.9 15 Sudoeste 46 Sudoeste 0 -- -- 43
2020-03-01 16:00:00 20.7 10 Sudoeste 32 Oeste 0 -- -- 43
2020-03-01 15:00:00 19.3 10 Sudoeste 36 Sudoeste 0 -- -- 44
2020-03-01 14:00:00 18.4 13 Oeste 42 Sudoeste 0 -- -- 48
2020-03-01 13:00:00 18 16 Sudoeste 49 Oeste 0 -- -- 49
2020-03-01 12:00:00 16 22 Sudoeste 50 Sudoeste 0 -- -- 55
2020-03-01 11:00:00 14.4 14 Sudoeste 39 Sudoeste 0 -- -- 60
2020-03-01 10:00:00 13.8 9 Sudoeste 28 Sudoeste 0 -- -- 61
2020-03-01 09:00:00 13.7 6 Sudoeste 19 Sudoeste 0 -- -- 61
2020-03-01 08:00:00 12.7 5 Sudoeste 27 Sudoeste 0 -- -- 62
2020-03-01 07:00:00 13.1 6 Sudoeste 35 Sudoeste 0 -- -- 59
2020-03-01 06:00:00 14.2 10 Oeste 45 Noroeste 0 -- -- 57
2020-03-01 05:00:00 14.2 6 Sudoeste 37 Sudoeste 0 -- -- 69
2020-03-01 04:00:00 14.7 12 Sudoeste 42 Sudoeste 0 -- -- 64
2020-03-01 03:00:00 15.1 18 Sudoeste 51 Sudoeste 0 -- -- 62
2020-03-01 02:00:00 15.2 19 Sudoeste 46 Oeste 0 -- -- 62
2020-03-01 01:00:00 15.5 26 Sudoeste 52 Sudoeste 0 -- -- 64
2020-03-01 00:00:00 16.3 15 Sudoeste 31 Sudoeste 0 -- -- 60
2020-02-29 23:00:00 16.5 13 Sudoeste 24 Oeste 0 -- -- 56
2020-02-29 22:00:00 16.7 9 Sudoeste 21 Sur 0 -- -- 54
2020-02-29 21:00:00 17.5 10 Sudoeste 24 Sudoeste 0 -- -- 53
2020-02-29 20:00:00 17.9 5 Oeste 30 Sudoeste 0 -- -- 50
2020-02-29 19:00:00 18.7 10 Oeste 36 Sudoeste 0 -- -- 46
2020-02-29 18:00:00 19.6 14 Sudoeste 39 Sudoeste 0 -- -- 42
2020-02-29 17:00:00 20.3 22 Sudoeste 43 Sudoeste 0 -- -- 39
2020-02-29 16:00:00 22.1 15 Sudoeste 39 Oeste 0 -- -- 35
2020-02-29 15:00:00 22.4 15 Sudoeste 32 Sudoeste 0 -- -- 33
2020-02-29 14:00:00 21.6 10 Sudoeste 24 Sudoeste 0 -- -- 35
2020-02-29 13:00:00 21.8 17 Sudoeste 42 Oeste 0 -- -- 33
2020-02-29 12:00:00 20.4 14 Oeste 48 Noroeste 0 -- -- 38
2020-02-29 11:00:00 18.7 19 Sudoeste 37 Sudoeste 0 -- -- 39
2020-02-29 10:00:00 17.3 10 Sudoeste 32 Sudoeste 0 -- -- 47
2020-02-29 09:00:00 13.8 5 Oeste 20 Oeste 0 -- -- 53
2020-02-29 08:00:00 8.4 5 Sudeste 13 Sudoeste 0 -- -- 69
2020-02-29 07:00:00 7 0 Calma 9 Oeste 0 -- -- 75
2020-02-29 06:00:00 8.4 6 Oeste 10 Oeste 0 -- -- 69
2020-02-29 05:00:00 5.8 0 Calma 4 Sudoeste 0 -- -- 87
2020-02-29 04:00:00 5.8 0 Calma 5 Oeste 0 -- -- 89
2020-02-29 03:00:00 6 2 Sudoeste 5 Sudoeste 0 -- -- 88
2020-02-29 02:00:00 6.3 0 Calma 5 Noroeste 0 -- -- 86
2020-02-29 01:00:00 7.3 0 Calma 5 Oeste 0 -- -- 84
2020-02-29 00:00:00 7.8 0 Calma 6 Noroeste 0 -- -- 81